Time;durP1;ratioP1;P1;durP2;ratioP2;P2;SDS_P1;SDS_P2;PMS_P1;PMS_P2;Temp;Humidity;BMP_temperature;BMP_pressure;BME280_temperature;BME280_humidity;BME280_pressure;Samples;Min_cycle;Max_cycle;Signal;HPM_P1;HPM_P2
2022/07/08 00:00:47;;;;;;;;;4.67;4.33;;;;;24.23;56.84;98707.25;4931880;28;102613;-56
2022/07/08 00:03:14;;;;;;;;;4.00;4.00;;;;;24.25;57.20;98707.81;4921739;28;102179;-56
2022/07/08 00:05:42;;;;;;;;;3.00;3.00;;;;;24.26;56.91;98703.94;4927113;28;109335;-55
2022/07/08 00:08:09;;;;;;;;;4.00;4.00;;;;;24.27;57.07;98713.88;4921876;28;102657;-55
2022/07/08 00:10:36;;;;;;;;;4.00;4.00;;;;;24.26;56.84;98711.41;4935439;28;102292;-56
2022/07/08 00:13:03;;;;;;;;;4.00;4.00;;;;;24.27;56.91;98702.00;4934148;28;102740;-56
2022/07/08 00:15:31;;;;;;;;;2.67;2.67;;;;;24.29;57.37;98710.81;4924254;28;104184;-55
2022/07/08 00:17:58;;;;;;;;;3.67;3.67;;;;;24.26;56.60;98712.25;4926156;28;102526;-56
2022/07/08 00:20:26;;;;;;;;;2.67;2.67;;;;;24.27;56.71;98702.81;4928949;28;102085;-56
2022/07/08 00:22:53;;;;;;;;;5.00;5.00;;;;;24.26;56.43;98708.66;4923763;28;103595;-56
2022/07/08 00:25:20;;;;;;;;;4.33;4.33;;;;;24.22;56.81;98702.88;4921971;28;104145;-55
2022/07/08 00:27:47;;;;;;;;;4.00;4.00;;;;;24.18;57.04;98712.81;4922102;28;102250;-56
2022/07/08 00:30:15;;;;;;;;;4.33;4.33;;;;;24.21;57.28;98711.44;4935277;28;103231;-56
2022/07/08 00:32:42;;;;;;;;;5.00;5.00;;;;;24.18;56.76;98710.06;4921970;28;102626;-56
2022/07/08 00:35:09;;;;;;;;;3.00;3.00;;;;;24.16;57.08;98712.28;4917855;28;103521;-56
2022/07/08 00:37:36;;;;;;;;;4.00;4.00;;;;;24.17;57.05;98721.41;4924337;28;102509;-55
2022/07/08 00:40:04;;;;;;;;;4.00;4.00;;;;;24.21;57.10;98711.44;4923563;28;102650;-56
2022/07/08 00:42:31;;;;;;;;;3.00;3.00;;;;;24.19;57.33;98717.25;4916888;28;102160;-56
2022/07/08 00:44:58;;;;;;;;;3.67;3.67;;;;;24.21;57.30;98722.50;4926928;28;104197;-56
2022/07/08 00:47:26;;;;;;;;;3.33;3.33;;;;;24.21;56.88;98716.97;4938645;28;102500;-56
2022/07/08 00:49:53;;;;;;;;;3.67;3.67;;;;;24.20;57.40;98726.34;4928954;28;102622;-56
2022/07/08 00:52:20;;;;;;;;;4.00;4.00;;;;;24.21;57.48;98725.25;4921190;28;102210;-56
2022/07/08 00:54:47;;;;;;;;;4.00;4.00;;;;;24.16;56.67;98728.88;4927047;28;104073;-56
2022/07/08 00:57:15;;;;;;;;;4.67;4.67;;;;;24.14;56.85;98719.16;4930340;28;102545;-55
2022/07/08 00:59:42;;;;;;;;;4.33;4.33;;;;;24.15;56.90;98726.34;4918692;28;102157;-56
2022/07/08 01:02:10;;;;;;;;;5.33;5.33;;;;;24.12;57.46;98722.25;4910171;28;102296;-56
2022/07/08 01:04:37;;;;;;;;;5.00;4.00;;;;;24.16;57.23;98731.63;4907284;28;104067;-56
2022/07/08 01:07:05;;;;;;;;;4.00;4.00;;;;;24.13;56.89;98728.59;4914180;28;102372;-55
2022/07/08 01:09:32;;;;;;;;;4.00;4.00;;;;;24.11;57.22;98726.09;4914918;28;102865;-56
2022/07/08 01:11:59;;;;;;;;;4.00;4.00;;;;;24.13;57.60;98723.91;4932579;28;102645;-56
2022/07/08 01:14:27;;;;;;;;;3.67;3.33;;;;;24.13;57.09;98734.94;4927758;28;104292;-56
2022/07/08 01:16:54;;;;;;;;;4.33;4.00;;;;;24.11;57.14;98723.34;4930076;28;102114;-56
2022/07/08 01:19:22;;;;;;;;;3.00;3.00;;;;;24.14;57.21;98733.00;4926947;28;102445;-56
2022/07/08 01:21:50;;;;;;;;;2.67;2.67;;;;;24.12;57.23;98726.94;4941079;28;102277;-56
2022/07/08 01:24:18;;;;;;;;;3.67;3.67;;;;;24.13;57.22;98728.59;4925776;28;104120;-56
2022/07/08 01:26:45;;;;;;;;;5.00;4.67;;;;;24.12;57.23;98729.69;4919221;28;102545;-55
2022/07/08 01:29:13;;;;;;;;;2.67;2.33;;;;;24.12;56.88;98726.94;4918919;28;102572;-56
2022/07/08 01:31:41;;;;;;;;;3.00;3.00;;;;;24.11;57.08;98733.56;4922645;28;102768;-55
2022/07/08 01:34:08;;;;;;;;;4.00;3.00;;;;;24.07;56.99;98730.56;4922001;28;104094;-55
2022/07/08 01:36:36;;;;;;;;;3.00;3.00;;;;;24.05;57.32;98730.00;4928441;28;102671;-56
2022/07/08 01:39:03;;;;;;;;;3.33;3.33;;;;;24.08;57.23;98731.38;4935585;28;102217;-56
2022/07/08 01:41:30;;;;;;;;;4.00;4.00;;;;;24.05;57.24;98737.47;4931589;28;102254;-55
2022/07/08 01:43:58;;;;;;;;;3.33;3.33;;;;;24.02;57.23;98734.19;4920230;28;104426;-56
2022/07/08 01:46:25;;;;;;;;;5.00;4.00;;;;;24.05;57.41;98737.47;4929165;28;102590;-56
2022/07/08 01:48:52;;;;;;;;;3.00;3.00;;;;;24.05;57.35;98743.81;4944261;28;102179;-56
2022/07/08 01:51:19;;;;;;;;;4.00;4.00;;;;;24.05;57.43;98740.22;4931980;28;102216;-56
2022/07/08 01:53:46;;;;;;;;;4.00;4.00;;;;;24.05;57.50;98740.22;4928525;28;104080;-55
2022/07/08 01:56:13;;;;;;;;;3.33;3.00;;;;;24.04;57.51;98742.19;4915819;28;102340;-56
2022/07/08 01:58:40;;;;;;;;;4.33;3.67;;;;;24.06;57.27;98741.88;4939526;28;102403;-56
2022/07/08 02:01:08;;;;;;;;;3.00;3.00;;;;;24.07;57.34;98746.31;4934927;28;102363;-55
2022/07/08 02:03:35;;;;;;;;;3.00;3.00;;;;;24.03;57.17;98746.06;4928429;28;104237;-55
2022/07/08 02:06:02;;;;;;;;;4.00;3.00;;;;;24.02;57.32;98750.75;4933589;28;102272;-55
2022/07/08 02:08:29;;;;;;;;;2.67;2.67;;;;;24.00;57.25;98750.19;4923458;28;102725;-56
2022/07/08 02:13:42;;;;;;;;;3.67;3.67;;;;;23.99;57.33;98747.75;4927621;28;111107;-55
2022/07/08 02:16:10;;;;;;;;;4.00;4.00;;;;;23.98;57.53;98760.72;4923794;28;102637;-55
2022/07/08 02:18:37;;;;;;;;;3.00;3.00;;;;;23.96;57.63;98757.41;4932632;28;103158;-56
2022/07/08 02:21:04;;;;;;;;;3.00;3.00;;;;;23.98;57.46;98759.88;4940050;28;102283;-56
2022/07/08 02:23:31;;;;;;;;;3.00;3.00;;;;;23.99;57.59;98776.19;4924847;28;103976;-56
2022/07/08 02:25:58;;;;;;;;;3.67;3.67;;;;;23.99;57.59;98770.66;4938513;28;102881;-55
2022/07/08 02:28:25;;;;;;;;;3.00;3.00;;;;;24.00;57.79;98769.53;4927582;28;102208;-56
2022/07/08 02:30:53;;;;;;;;;2.00;2.00;;;;;23.99;57.37;98772.59;4935639;28;102970;-56
2022/07/08 02:33:20;;;;;;;;;2.33;2.33;;;;;23.97;57.27;98769.28;4932914;28;104067;-56
2022/07/08 02:35:47;;;;;;;;;3.33;3.00;;;;;23.97;57.57;98770.13;4939163;28;104757;-58
2022/07/08 02:38:14;;;;;;;;;4.67;4.33;;;;;23.96;57.43;98771.22;4937897;28;102245;-55
2022/07/08 02:40:41;;;;;;;;;3.00;3.00;;;;;23.97;57.39;98769.28;4931340;28;102439;-55
2022/07/08 02:45:50;;;;;;;;;4.00;4.00;;;;;23.96;57.30;98782.25;2589469;22;103350;-96
2022/07/08 02:48:17;;;;;;;;;4.33;3.00;;;;;23.95;57.47;98788.09;4911505;28;102200;-94
2022/07/08 02:50:44;;;;;;;;;3.00;3.00;;;;;23.91;57.56;98782.28;4914892;28;103017;-96
2022/07/08 02:53:11;;;;;;;;;4.33;3.33;;;;;23.93;57.70;98791.13;4900347;28;104042;-95
2022/07/08 02:55:39;;;;;;;;;3.67;3.67;;;;;23.88;57.65;98793.91;4914590;28;102612;-96
2022/07/08 02:58:06;;;;;;;;;3.67;3.33;;;;;23.93;57.46;98801.34;4914000;28;102291;-95
2022/07/08 03:00:33;;;;;;;;;4.33;4.00;;;;;23.94;57.48;98806.59;4915468;28;102382;-94
2022/07/08 03:03:00;;;;;;;;;4.00;4.00;;;;;23.94;57.61;98795.56;4910003;28;104187;-95
2022/07/08 03:05:27;;;;;;;;;2.00;2.00;;;;;23.94;57.62;98795.56;4915763;28;102549;-95
2022/07/08 03:07:54;;;;;;;;;2.33;2.33;;;;;23.93;57.35;98804.94;4914622;28;102114;-95
2022/07/08 03:10:21;;;;;;;;;3.00;3.00;;;;;23.88;57.38;98802.19;4915271;28;102233;-95
2022/07/08 03:12:48;;;;;;;;;3.00;3.00;;;;;23.87;57.47;98792.25;4915134;28;103492;-95
2022/07/08 03:15:17;;;;;;;;;3.00;3.00;;;;;23.88;57.29;98802.19;4912250;28;102703;-95
2022/07/08 03:17:46;;;;;;;;;2.00;2.00;;;;;23.92;57.66;98808.81;4902128;28;106016;-95
2022/07/08 03:20:13;;;;;;;;;3.00;3.00;;;;;23.93;57.32;98809.63;4905556;28;103039;-95
2022/07/08 03:22:40;;;;;;;;;4.00;4.00;;;;;23.91;57.62;98814.63;4906432;28;104779;-95
2022/07/08 03:25:08;;;;;;;;;3.00;3.00;;;;;23.89;57.48;98814.91;4913859;28;109770;-95
2022/07/08 03:27:35;;;;;;;;;3.00;3.00;;;;;23.90;57.73;98813.81;4896954;28;102723;-95
2022/07/08 03:30:03;;;;;;;;;3.67;3.67;;;;;23.89;57.66;98814.91;4862686;28;104041;-95
2022/07/08 03:32:30;;;;;;;;;3.33;3.00;;;;;23.87;57.61;98810.75;4869749;28;104082;-96
2022/07/08 03:34:57;;;;;;;;;4.00;4.00;;;;;23.90;57.61;98813.81;4889580;28;108105;-95
2022/07/08 03:37:25;;;;;;;;;3.33;3.33;;;;;23.88;57.59;98815.16;4912206;28;102638;-95
2022/07/08 03:39:53;;;;;;;;;3.33;3.33;;;;;23.89;57.49;98817.66;4898160;28;102403;-95
2022/07/08 03:42:20;;;;;;;;;2.00;2.00;;;;;23.87;57.61;98810.75;4900587;28;104366;-95
2022/07/08 03:44:50;;;;;;;;;2.67;2.67;;;;;23.88;57.43;98816.00;4901434;28;102279;-95
2022/07/08 03:47:17;;;;;;;;;3.67;3.67;;;;;23.88;57.35;98824.28;4916053;28;102271;-95
2022/07/08 03:49:44;;;;;;;;;4.00;4.00;;;;;23.89;57.74;98823.19;4895656;28;102165;-95
2022/07/08 03:52:11;;;;;;;;;2.33;2.33;;;;;23.88;57.57;98831.75;4909087;28;104071;-95
2022/07/08 03:54:41;;;;;;;;;4.00;3.00;;;;;23.87;57.68;98836.44;4918475;28;102149;-95
2022/07/08 03:57:08;;;;;;;;;3.00;3.00;;;;;23.86;57.53;98833.97;4937903;28;101196;-95
2022/07/08 03:59:35;;;;;;;;;1.33;1.33;;;;;23.89;57.93;98839.75;4945479;28;101303;-96
2022/07/08 04:02:02;;;;;;;;;3.00;3.00;;;;;23.90;57.51;98832.31;4942900;28;103055;-96
2022/07/08 04:04:30;;;;;;;;;4.00;3.33;;;;;23.92;57.33;98844.72;4902528;28;102534;-96
2022/07/08 04:06:57;;;;;;;;;4.00;4.00;;;;;23.92;57.65;98839.19;4913471;28;102341;-96
2022/07/08 04:09:24;;;;;;;;;2.67;2.67;;;;;23.92;57.37;98844.72;4882940;28;102618;-95
2022/07/08 04:11:52;;;;;;;;;3.67;3.67;;;;;23.92;57.70;98850.22;4911896;28;104039;-95
2022/07/08 04:14:19;;;;;;;;;4.33;3.67;;;;;23.94;57.47;98848.03;4909819;28;102583;-95
2022/07/08 04:16:46;;;;;;;;;2.67;2.00;;;;;23.92;57.48;98844.72;4913229;28;103281;-95
2022/07/08 04:19:13;;;;;;;;;3.33;3.33;;;;;23.91;57.45;98842.25;4915527;28;103393;-95
2022/07/08 04:21:40;;;;;;;;;3.67;3.00;;;;;23.89;57.24;98847.22;4913448;28;104089;-95
2022/07/08 04:24:07;;;;;;;;;3.67;3.00;;;;;23.86;57.22;98843.09;4896377;28;103082;-95
2022/07/08 04:26:35;;;;;;;;;3.00;3.00;;;;;23.88;57.57;98849.16;4889876;28;102703;-95
2022/07/08 04:29:02;;;;;;;;;2.67;2.33;;;;;23.89;57.57;98856.34;4903107;28;102474;-95
2022/07/08 04:31:29;;;;;;;;;4.00;3.67;;;;;23.89;57.43;98858.25;4887144;28;104271;-96
2022/07/08 04:33:56;;;;;;;;;2.00;2.00;;;;;23.90;57.88;98860.75;4890188;28;102559;-96
2022/07/08 04:36:23;;;;;;;;;2.33;2.33;;;;;23.90;57.74;98859.94;4908328;28;102137;-95
2022/07/08 04:38:50;;;;;;;;;2.33;2.33;;;;;23.90;57.52;98865.44;4916162;28;102249;-94
2022/07/08 04:41:17;;;;;;;;;4.00;3.00;;;;;23.93;57.74;98871.22;4911123;28;104472;-93
2022/07/08 04:43:44;;;;;;;;;4.00;4.00;;;;;23.94;57.67;98874.81;4911124;28;102381;-94
2022/07/08 04:46:12;;;;;;;;;2.00;2.00;;;;;23.96;57.76;98867.06;4891749;28;102982;-96
2022/07/08 04:48:40;;;;;;;;;2.50;2.50;;;;;23.93;57.58;98862.94;4861321;28;102446;-96
2022/07/08 04:51:07;;;;;;;;;3.00;3.00;;;;;23.93;58.01;98868.47;4871601;28;103371;-96
2022/07/08 04:53:34;;;;;;;;;3.00;3.00;;;;;23.93;57.41;98867.63;4900299;28;102459;-96
2022/07/08 04:56:02;;;;;;;;;3.67;3.00;;;;;23.92;57.35;98875.09;4880837;28;102678;-96
2022/07/08 04:58:29;;;;;;;;;4.00;3.00;;;;;23.85;57.46;98871.81;4892597;28;103107;-96
2022/07/08 05:00:58;;;;;;;;;2.33;2.33;;;;;23.91;57.71;98875.41;4908742;28;106124;-96
2022/07/08 05:05:57;;;;;;;;;2.00;2.00;;;;;23.91;57.34;98881.72;4903046;28;102283;-54
2022/07/08 05:08:24;;;;;;;;;6.00;4.33;;;;;23.93;57.93;98890.56;4916855;28;102399;-54
2022/07/08 05:10:51;;;;;;;;;2.67;2.67;;;;;23.97;57.65;98899.94;4914771;28;104168;-54
2022/07/08 05:13:18;;;;;;;;;3.00;2.00;;;;;24.00;57.88;98891.09;4919951;28;105684;-54
2022/07/08 05:15:45;;;;;;;;;2.00;2.00;;;;;24.01;57.57;98898.28;4909439;28;102154;-55
2022/07/08 05:18:12;;;;;;;;;2.00;2.00;;;;;24.06;58.02;98899.34;4917439;28;102301;-54
2022/07/08 05:20:39;;;;;;;;;1.67;1.67;;;;;24.08;57.85;98899.91;4916425;28;104176;-55
2022/07/08 05:23:08;;;;;;;;;3.00;3.00;;;;;24.06;58.01;98908.47;4912105;28;102004;-54
2022/07/08 05:25:35;;;;;;;;;2.00;2.00;;;;;24.06;58.33;98910.41;4909671;28;102593;-55
2022/07/08 05:28:02;;;;;;;;;3.00;2.00;;;;;24.05;58.20;98911.50;4917317;28;102852;-54
2022/07/08 05:30:29;;;;;;;;;2.00;2.00;;;;;24.05;58.33;98917.03;4916158;28;104159;-54
2022/07/08 05:32:56;;;;;;;;;2.67;2.67;;;;;24.02;57.83;98922.03;4916816;28;102244;-54
2022/07/08 05:35:23;;;;;;;;;2.00;2.00;;;;;24.04;58.47;98915.41;4913923;28;102955;-54
2022/07/08 05:37:50;;;;;;;;;2.00;2.00;;;;;24.05;58.28;98922.56;4912263;28;102652;-55
2022/07/08 05:40:18;;;;;;;;;2.67;2.67;;;;;24.04;58.22;98924.53;4915824;28;105361;-54
2022/07/08 05:42:45;;;;;;;;;2.67;2.33;;;;;24.07;58.23;98912.06;4916254;28;102533;-54
2022/07/08 05:45:13;;;;;;;;;2.00;2.00;;;;;24.08;58.69;98913.75;4917760;28;102277;-54
2022/07/08 05:47:40;;;;;;;;;2.00;2.00;;;;;24.10;58.50;98917.03;4914593;28;102776;-54
2022/07/08 05:50:07;;;;;;;;;3.00;3.00;;;;;24.08;58.52;98922.03;4917335;28;104043;-54
2022/07/08 05:52:35;;;;;;;;;2.33;2.33;;;;;24.07;58.42;98917.59;4919113;28;102307;-54
2022/07/08 05:55:02;;;;;;;;;2.33;2.33;;;;;24.08;58.68;98924.78;4912817;28;102123;-54
2022/07/08 05:57:29;;;;;;;;;2.00;2.00;;;;;24.07;58.81;98929.47;4921699;28;102131;-54
2022/07/08 05:59:56;;;;;;;;;2.33;2.00;;;;;24.07;58.90;98923.97;4918150;28;104180;-54
2022/07/08 06:02:23;;;;;;;;;2.00;2.00;;;;;24.07;58.53;98931.41;4918289;28;102297;-54
2022/07/08 06:04:51;;;;;;;;;2.33;2.00;;;;;24.09;58.71;98929.22;4918953;28;102370;-55
2022/07/08 06:07:18;;;;;;;;;2.33;2.33;;;;;24.07;58.66;98926.72;4921247;28;102453;-54
2022/07/08 06:09:45;;;;;;;;;3.00;2.00;;;;;24.10;58.75;98928.91;4920278;28;108750;-54
2022/07/08 06:12:12;;;;;;;;;2.00;2.00;;;;;24.09;59.05;98927.25;4921326;28;102404;-54
2022/07/08 06:14:39;;;;;;;;;2.00;2.00;;;;;24.11;58.80;98935.28;4918801;28;102320;-54
2022/07/08 06:17:06;;;;;;;;;2.00;2.00;;;;;24.12;59.02;98935.00;4919383;28;102298;-54
2022/07/08 06:19:33;;;;;;;;;2.00;2.00;;;;;24.13;58.93;98936.66;4919078;28;105386;-54
2022/07/08 06:22:00;;;;;;;;;3.00;3.00;;;;;24.12;58.89;98937.75;4915945;28;104562;-54
2022/07/08 06:24:27;;;;;;;;;2.00;2.00;;;;;24.11;59.40;98938.03;4917022;28;102210;-55
2022/07/08 06:26:54;;;;;;;;;2.00;2.00;;;;;24.14;59.32;98943.00;4918999;28;102114;-54
2022/07/08 06:29:22;;;;;;;;;1.00;1.00;;;;;24.14;59.61;98943.00;4917087;28;104125;-54
2022/07/08 06:31:49;;;;;;;;;2.00;2.00;;;;;24.11;59.96;98936.09;4915829;28;102548;-55
2022/07/08 06:34:16;;;;;;;;;2.67;2.67;;;;;24.13;60.03;98946.88;4921865;28;102373;-54
2022/07/08 06:36:43;;;;;;;;;2.00;2.00;;;;;24.10;60.14;98945.50;4915557;28;102211;-54
2022/07/08 06:39:10;;;;;;;;;2.00;2.00;;;;;24.12;59.96;98947.97;4915010;28;104145;-54
2022/07/08 06:41:37;;;;;;;;;3.00;3.00;;;;;24.10;60.57;98948.25;4918249;28;102121;-54
2022/07/08 06:44:04;;;;;;;;;2.33;2.33;;;;;24.10;60.40;98950.19;4919276;28;102301;-54
2022/07/08 06:46:32;;;;;;;;;2.33;2.33;;;;;24.08;60.66;98953.25;4915010;28;102823;-54
2022/07/08 06:48:59;;;;;;;;;3.00;3.00;;;;;24.09;60.57;98956.84;4915110;28;104168;-55
2022/07/08 06:51:26;;;;;;;;;2.00;2.00;;;;;24.10;60.80;98961.25;4912892;28;102143;-54
2022/07/08 06:56:39;;;;;;;;;3.00;2.00;;;;;24.09;60.89;98952.13;4907022;28;104821;-54
2022/07/08 06:59:06;;;;;;;;;2.00;2.00;;;;;24.09;60.82;98954.09;4916642;28;104160;-54
2022/07/08 07:01:33;;;;;;;;;2.33;2.33;;;;;24.09;60.85;98954.09;4912562;28;102203;-54
2022/07/08 07:04:01;;;;;;;;;2.67;2.67;;;;;24.08;60.98;98946.88;4919333;28;102408;-54
2022/07/08 07:06:29;;;;;;;;;3.00;3.00;;;;;24.09;60.98;98954.09;4915430;28;102212;-55
2022/07/08 07:08:56;;;;;;;;;4.00;4.00;;;;;24.09;61.21;98948.56;4914240;28;104072;-54
2022/07/08 07:11:23;;;;;;;;;2.00;2.00;;;;;24.09;61.02;98951.31;4918233;28;102151;-55
2022/07/08 07:13:50;;;;;;;;;4.00;4.00;;;;;24.07;60.85;98950.75;4915792;28;102244;-55
2022/07/08 07:16:17;;;;;;;;;4.00;3.00;;;;;24.10;61.13;98951.00;4918779;28;102202;-54
2022/07/08 07:18:44;;;;;;;;;3.00;3.00;;;;;24.11;61.12;98954.59;4912799;28;108954;-54
2022/07/08 07:21:11;;;;;;;;;4.00;4.00;;;;;24.13;60.94;98956.00;4916221;28;102845;-54
2022/07/08 07:23:39;;;;;;;;;3.00;3.00;;;;;24.15;61.02;98948.25;4916192;28;102266;-54
2022/07/08 07:26:06;;;;;;;;;5.67;5.00;;;;;24.17;60.50;98956.28;4912744;28;102382;-54
2022/07/08 07:28:34;;;;;;;;;5.67;5.00;;;;;24.18;60.86;98961.53;4916244;28;104042;-54
2022/07/08 07:31:01;;;;;;;;;4.67;4.67;;;;;24.21;61.72;98954.63;4919196;28;102143;-54
2022/07/08 07:33:28;;;;;;;;;4.00;3.33;;;;;24.20;62.01;98950.19;4918330;28;102126;-54
2022/07/08 07:35:56;;;;;;;;;5.00;5.00;;;;;24.19;62.01;98957.66;4915774;28;102106;-55
2022/07/08 07:38:23;;;;;;;;;5.33;5.00;;;;;24.18;62.13;98961.53;4915970;28;104100;-55
2022/07/08 07:40:50;;;;;;;;;5.00;5.00;;;;;24.18;61.51;98953.22;4910922;28;102102;-55
2022/07/08 07:43:17;;;;;;;;;7.00;6.00;;;;;24.17;61.99;98956.28;4918441;28;102305;-54
2022/07/08 07:45:44;;;;;;;;;8.00;6.00;;;;;24.18;61.98;98960.72;4918447;28;102468;-54
2022/07/08 07:48:11;;;;;;;;;5.67;5.67;;;;;24.18;61.97;98966.25;4915251;28;104043;-55
2022/07/08 07:50:39;;;;;;;;;5.67;5.67;;;;;24.19;61.62;98962.34;4913381;28;102303;-54
2022/07/08 07:53:06;;;;;;;;;4.67;4.00;;;;;24.22;61.39;98959.03;4917281;28;102246;-55
2022/07/08 07:55:33;;;;;;;;;5.00;5.00;;;;;24.22;61.55;98957.13;4915768;28;102326;-55
2022/07/08 07:58:00;;;;;;;;;5.00;5.00;;;;;24.23;61.16;98960.69;4918590;28;104167;-54
2022/07/08 08:00:32;;;;;;;;;6.33;6.33;;;;;24.23;61.24;98953.22;4919228;28;102080;-55
2022/07/08 08:03:00;;;;;;;;;4.67;4.00;;;;;24.24;61.50;98962.34;4918739;28;102169;-55
2022/07/08 08:05:27;;;;;;;;;5.00;5.00;;;;;24.24;61.61;98951.28;4915634;28;102577;-55
2022/07/08 08:07:54;;;;;;;;;7.00;6.00;;;;;24.22;61.41;98954.34;4908506;28;104082;-55
2022/07/08 08:10:21;;;;;;;;;5.00;5.00;;;;;24.26;61.10;98951.84;4910306;28;102153;-54
2022/07/08 08:12:48;;;;;;;;;6.00;5.33;;;;;24.25;61.51;98955.72;4918585;28;102416;-55
2022/07/08 08:15:15;;;;;;;;;5.33;5.00;;;;;24.24;61.73;98957.63;4914104;28;102316;-55
2022/07/08 08:17:42;;;;;;;;;4.33;4.33;;;;;24.23;62.04;98955.16;4912642;28;104045;-55
2022/07/08 08:20:11;;;;;;;;;5.00;5.00;;;;;24.24;61.52;98952.13;4916711;28;102439;-55
2022/07/08 08:22:39;;;;;;;;;5.00;5.00;;;;;24.24;61.91;98954.06;4911357;28;102607;-54
2022/07/08 08:25:26;;;;;;;;;4.00;3.67;;;;;24.28;61.40;98960.66;4921962;28;102574;-55
2022/07/08 08:27:53;;;;;;;;;5.00;5.00;;;;;24.29;61.40;98954.03;4915374;28;104122;-55
2022/07/08 08:30:20;;;;;;;;;3.67;3.00;;;;;24.31;61.16;98958.19;4916343;28;102243;-56
2022/07/08 08:32:48;;;;;;;;;4.00;4.00;;;;;24.31;61.53;98966.47;4917410;28;102425;-55
2022/07/08 08:35:15;;;;;;;;;3.67;3.67;;;;;24.30;61.40;98961.22;4912467;28;102213;-54
2022/07/08 08:37:42;;;;;;;;;5.67;4.67;;;;;24.29;61.89;98962.31;4906755;28;104057;-55
2022/07/08 08:40:10;;;;;;;;;4.67;4.67;;;;;24.28;61.79;98964.25;4914216;28;102386;-55
2022/07/08 08:42:38;;;;;;;;;5.67;5.00;;;;;24.27;62.20;98961.78;4908112;28;102281;-55
2022/07/08 08:45:06;;;;;;;;;4.00;4.00;;;;;24.29;61.82;98965.09;4910311;28;102545;-54
2022/07/08 08:47:34;;;;;;;;;4.67;4.00;;;;;24.30;61.52;98959.28;4915600;28;104392;-54
2022/07/08 08:52:51;;;;;;;;;3.00;3.00;;;;;24.34;61.59;98968.69;4912334;28;102624;-55
2022/07/08 08:55:28;;;;;;;;;3.33;3.00;;;;;24.33;61.50;98960.66;4916473;28;102347;-54
2022/07/08 08:58:00;;;;;;;;;4.67;4.67;;;;;24.36;61.47;98963.66;4911967;28;110209;-55
2022/07/08 09:00:28;;;;;;;;;4.00;4.00;;;;;24.35;61.32;98967.56;4915566;28;102139;-54
2022/07/08 09:02:56;;;;;;;;;5.67;4.67;;;;;24.36;61.45;98960.09;4913682;28;105318;-54
2022/07/08 09:05:23;;;;;;;;;3.00;3.00;;;;;24.37;61.49;98964.50;4911700;28;102121;-55
2022/07/08 09:07:51;;;;;;;;;5.00;5.00;;;;;24.37;61.47;98957.03;4917611;28;104096;-58
2022/07/08 09:10:18;;;;;;;;;3.00;2.33;;;;;24.39;61.37;98965.06;4920071;28;102126;-54
2022/07/08 09:13:11;;;;;;;;;3.67;3.67;;;;;24.39;61.33;98971.44;4913380;28;102257;-55
2022/07/08 09:15:40;;;;;;;;;5.00;5.00;;;;;24.40;61.17;98963.97;4911188;28;102297;-54
2022/07/08 09:18:13;;;;;;;;;4.33;4.33;;;;;24.38;61.35;98960.63;4916301;28;104059;-54
2022/07/08 09:20:51;;;;;;;;;3.00;3.00;;;;;24.38;61.45;98960.63;4915201;28;105461;-54
2022/07/08 09:23:22;;;;;;;;;3.00;3.00;;;;;24.38;61.26;98949.59;4916732;28;102660;-55
2022/07/08 09:25:53;;;;;;;;;4.00;3.00;;;;;24.39;61.38;98959.53;4917911;28;102172;-55
2022/07/08 09:28:33;;;;;;;;;2.00;2.00;;;;;24.39;61.77;98962.31;4899416;28;109389;-54
2022/07/08 09:31:02;;;;;;;;;4.00;3.33;;;;;24.40;61.40;98962.03;4914999;28;108026;-55
2022/07/08 09:33:29;;;;;;;;;4.00;4.00;;;;;24.40;61.43;98961.19;4901152;28;102364;-55
2022/07/08 09:36:00;;;;;;;;;3.00;3.00;;;;;24.42;61.25;98954.25;4914127;28;102104;-54
2022/07/08 09:38:35;;;;;;;;;2.67;2.67;;;;;24.43;61.33;98957.84;4913575;28;104024;-55
2022/07/08 09:41:04;;;;;;;;;2.67;2.67;;;;;24.44;61.34;98959.53;4936008;28;102281;-54
2022/07/08 09:43:32;;;;;;;;;3.33;3.33;;;;;24.44;61.39;98954.00;4908907;28;102081;-55
2022/07/08 09:46:03;;;;;;;;;3.00;3.00;;;;;24.46;61.10;98951.75;4915772;28;102058;-55
2022/07/08 09:48:31;;;;;;;;;2.00;2.00;;;;;24.45;61.13;98950.13;4912196;28;104057;-54
2022/07/08 09:50:59;;;;;;;;;3.00;3.00;;;;;24.45;61.50;98939.06;4917118;28;102459;-55
2022/07/08 09:53:31;;;;;;;;;4.00;3.67;;;;;24.48;61.07;98944.03;4913286;28;102228;-55
2022/07/08 09:56:00;;;;;;;;;2.33;2.33;;;;;24.47;61.48;98947.88;4918054;28;102329;-55
2022/07/08 09:58:28;;;;;;;;;4.00;4.00;;;;;24.47;61.00;98947.88;4913486;28;104247;-54
2022/07/08 10:00:56;;;;;;;;;3.33;3.00;;;;;24.47;61.34;98950.66;4916979;28;102529;-55
2022/07/08 10:03:23;;;;;;;;;3.00;3.00;;;;;24.48;61.10;98945.94;4910649;28;102200;-55
2022/07/08 10:05:51;;;;;;;;;3.00;2.33;;;;;24.47;61.46;98944.28;4917972;28;102557;-54
2022/07/08 10:08:18;;;;;;;;;2.00;2.00;;;;;24.48;61.36;98951.47;4916262;28;108841;-55
2022/07/08 10:10:46;;;;;;;;;3.00;3.00;;;;;24.48;61.10;98945.94;4916168;28;102179;-54
2022/07/08 10:13:14;;;;;;;;;5.00;5.00;;;;;24.48;61.46;98945.94;4913129;28;101982;-55
2022/07/08 10:15:42;;;;;;;;;3.00;3.00;;;;;24.48;61.32;98945.94;4912889;28;102299;-54
2022/07/08 10:18:32;;;;;;;;;3.00;2.33;;;;;24.48;61.30;98957.84;4916021;28;104032;-54
2022/07/08 10:20:59;;;;;;;;;3.00;3.00;;;;;24.49;61.41;98955.91;4909309;28;103156;-55
2022/07/08 10:23:59;;;;;;;;;2.33;2.33;;;;;24.48;61.22;98957.84;4917081;28;102203;-56
2022/07/08 10:26:36;;;;;;;;;4.00;3.33;;;;;24.49;61.56;98956.75;4900539;28;102207;-54
2022/07/08 10:29:08;;;;;;;;;2.33;2.33;;;;;24.49;61.48;98959.50;4916868;28;104053;-55
2022/07/08 10:31:50;;;;;;;;;2.00;2.00;;;;;24.48;61.25;98962.53;4912962;28;102532;-54
2022/07/08 10:34:19;;;;;;;;;2.00;2.00;;;;;24.50;61.58;98968.59;4914394;28;103760;-54
2022/07/08 10:36:47;;;;;;;;;3.00;3.00;;;;;24.49;61.29;98981.63;4915978;28;103416;-54
2022/07/08 10:39:30;;;;;;;;;2.00;2.00;;;;;24.49;61.12;98997.38;4919004;28;104209;-55
2022/07/08 10:42:04;;;;;;;;;3.00;3.00;;;;;24.49;61.46;99000.16;4919165;28;102134;-54
2022/07/08 10:44:46;;;;;;;;;3.67;3.67;;;;;24.48;61.55;98996.56;4942003;28;102587;-54
2022/07/08 10:47:28;;;;;;;;;3.00;3.00;;;;;24.50;61.37;98986.03;4918167;28;102255;-55
2022/07/08 10:50:06;;;;;;;;;3.00;3.00;;;;;24.48;61.46;98991.03;4910057;28;108961;-55
2022/07/08 10:52:40;;;;;;;;;3.00;3.00;;;;;24.48;60.86;99002.06;4918466;28;102387;-54
2022/07/08 10:55:16;;;;;;;;;3.33;3.00;;;;;24.49;61.53;98998.22;4915505;28;102934;-55
2022/07/08 10:57:57;;;;;;;;;4.00;3.67;;;;;24.46;61.41;99009.81;4917011;28;102605;-55
2022/07/08 11:00:24;;;;;;;;;2.67;2.67;;;;;24.46;61.30;99007.03;4912815;28;108981;-55
2022/07/08 11:02:52;;;;;;;;;2.33;2.00;;;;;24.44;61.53;99006.53;4920506;28;105007;-54
2022/07/08 11:05:38;;;;;;;;;2.33;2.00;;;;;24.47;61.56;99016.16;4919322;28;102230;-55
2022/07/08 11:08:20;;;;;;;;;2.67;2.67;;;;;24.44;61.41;99017.56;4915606;28;102259;-54
2022/07/08 11:10:47;;;;;;;;;3.00;3.00;;;;;24.46;61.52;99018.09;4901209;28;109538;-55
2022/07/08 11:13:20;;;;;;;;;3.00;3.00;;;;;24.44;61.75;99015.66;4916270;28;102076;-55
2022/07/08 11:15:47;;;;;;;;;2.67;2.67;;;;;24.42;61.61;99019.78;4926205;28;102117;-54
2022/07/08 11:18:22;;;;;;;;;3.67;3.00;;;;;24.43;61.51;99022.28;4916596;28;102185;-54
2022/07/08 11:20:49;;;;;;;;;2.00;2.00;;;;;24.44;61.39;99023.09;4920426;28;108916;-54
2022/07/08 11:23:19;;;;;;;;;3.00;3.00;;;;;24.46;61.65;99015.34;4917196;28;102134;-54
2022/07/08 11:25:57;;;;;;;;;4.00;3.00;;;;;24.43;61.45;99008.44;4917009;28;102109;-55
2022/07/08 11:28:24;;;;;;;;;2.33;2.33;;;;;24.45;61.77;99008.19;4916764;28;102101;-54
2022/07/08 11:30:53;;;;;;;;;2.00;1.00;;;;;24.46;61.58;99009.81;4912263;28;104057;-55
2022/07/08 11:33:38;;;;;;;;;5.67;4.67;;;;;24.43;61.56;99004.84;4913751;28;102177;-54
2022/07/08 11:36:16;;;;;;;;;3.33;3.00;;;;;24.43;61.60;99000.16;4910995;28;102006;-55
2022/07/08 11:38:47;;;;;;;;;3.00;3.00;;;;;24.44;61.63;99006.53;4914003;28;102217;-54
2022/07/08 11:41:14;;;;;;;;;3.00;3.00;;;;;24.42;61.81;98998.50;4911539;28;104234;-54
2022/07/08 11:43:42;;;;;;;;;2.67;2.67;;;;;24.42;61.46;98998.50;4908649;28;102302;-54